createdAt,value
2019-06-08T00:00:23.744Z,9.88
2019-06-08T00:05:27.509Z,9.58
2019-06-08T00:10:31.975Z,10.00
2019-06-08T00:15:35.653Z,7.80
2019-06-08T00:20:39.322Z,9.10
2019-06-08T00:25:43.034Z,7.67
2019-06-08T00:30:46.730Z,9.20
2019-06-08T00:35:50.633Z,6.83
2019-06-08T00:40:54.665Z,6.90
2019-06-08T00:45:58.331Z,4.58
2019-06-08T00:51:02.003Z,2.80
2019-06-08T00:56:05.691Z,4.37
2019-06-08T01:01:09.791Z,2.80
2019-06-08T01:06:13.483Z,3.80
2019-06-08T01:11:18.602Z,1.90
2019-06-08T01:16:22.896Z,1.20
2019-06-08T01:21:27.709Z,1.33
2019-06-08T01:26:31.552Z,3.33
2019-06-08T01:31:35.318Z,1.30
2019-06-08T01:36:39.000Z,1.67
2019-06-08T01:41:42.658Z,3.27
2019-06-08T01:46:46.314Z,2.37
2019-06-08T01:51:50.010Z,1.20
2019-06-08T01:56:53.683Z,1.13
2019-06-08T02:01:57.816Z,0.70
2019-06-08T02:07:01.499Z,2.37
2019-06-08T02:12:05.728Z,0.87
2019-06-08T02:17:09.942Z,1.37
2019-06-08T02:22:13.614Z,2.07
2019-06-08T02:27:17.299Z,1.07
2019-06-08T02:32:21.043Z,1.60
2019-06-08T02:37:28.729Z,0.70
2019-06-08T02:42:33.107Z,1.10
2019-06-08T02:47:37.976Z,0.60
2019-06-08T02:52:43.988Z,3.40
2019-06-08T02:57:49.894Z,1.03
2019-06-08T03:02:54.621Z,0.50
2019-06-08T03:08:00.854Z,0.60
2019-06-08T03:13:05.764Z,1.10
2019-06-08T03:18:09.534Z,1.23
2019-06-08T03:23:13.335Z,1.10
2019-06-08T03:28:17.076Z,2.13
2019-06-08T03:33:20.834Z,1.77
2019-06-08T03:38:24.520Z,1.60
2019-06-08T03:43:28.240Z,1.00
2019-06-08T03:48:31.966Z,2.10
2019-06-08T03:53:37.739Z,1.57
2019-06-08T03:58:42.917Z,1.47
2019-06-08T04:03:46.960Z,1.13
2019-06-08T04:08:50.645Z,1.03
2019-06-08T04:13:54.353Z,1.00
2019-06-08T04:18:58.056Z,1.87
2019-06-08T04:24:01.950Z,0.97
2019-06-08T04:29:06.076Z,1.43
2019-06-08T04:34:09.835Z,3.23
2019-06-08T04:39:13.527Z,2.07
2019-06-08T04:44:17.252Z,0.60
2019-06-08T04:49:21.038Z,0.80
2019-06-08T04:54:24.712Z,1.67
2019-06-08T04:59:28.405Z,4.03
2019-06-08T05:04:32.340Z,4.57
2019-06-08T05:09:36.027Z,2.30
2019-06-08T05:14:41.034Z,1.73
2019-06-08T05:19:45.467Z,0.97
2019-06-08T05:24:50.068Z,0.73
2019-06-08T05:29:53.845Z,0.90
2019-06-08T05:34:57.521Z,2.13
2019-06-08T05:40:01.187Z,1.17
2019-06-08T05:45:05.530Z,1.80
2019-06-08T05:50:09.482Z,2.40
2019-06-08T05:55:13.339Z,0.47
2019-06-08T06:00:17.527Z,0.30
2019-06-08T06:05:21.344Z,0.80
2019-06-08T06:10:25.197Z,0.40
2019-06-08T06:15:28.902Z,0.47
2019-06-08T06:20:32.563Z,1.33
2019-06-08T06:25:36.380Z,1.00
2019-06-08T06:30:40.049Z,1.10
2019-06-08T06:35:44.132Z,1.37
2019-06-08T06:40:48.059Z,1.47
2019-06-08T06:45:52.168Z,1.43
2019-06-08T06:50:56.231Z,1.80
2019-06-08T06:56:00.158Z,2.27
2019-06-08T07:01:04.216Z,0.50
2019-06-08T07:06:07.926Z,1.55
2019-06-08T07:11:11.801Z,0.50
2019-06-08T07:16:18.813Z,1.20
2019-06-08T07:21:21.231Z,1.92
2019-06-08T07:26:25.008Z,1.23
2019-06-08T07:31:28.698Z,0.60
2019-06-08T07:36:32.386Z,2.43
2019-06-08T07:41:36.170Z,1.13
2019-06-08T07:46:39.895Z,0.50
2019-06-08T07:51:57.659Z,1.00
2019-06-08T07:56:50.124Z,0.80
2019-06-08T08:01:58.230Z,1.32
2019-06-08T08:07:02.142Z,0.60
2019-06-08T08:12:05.983Z,1.15
2019-06-08T08:17:09.695Z,0.62
2019-06-08T08:22:23.112Z,1.00
2019-06-08T08:27:18.997Z,0.70
2019-06-08T08:32:22.741Z,0.40
2019-06-08T08:37:28.097Z,1.37
2019-06-08T08:42:32.164Z,1.47
2019-06-08T08:47:38.437Z,1.62
2019-06-08T08:52:41.349Z,1.50
2019-06-08T08:57:45.104Z,1.73
2019-06-08T09:02:52.977Z,2.87
2019-06-08T09:07:55.650Z,1.00
2019-06-08T09:13:02.962Z,1.10
2019-06-08T09:18:07.936Z,1.32
2019-06-08T09:23:16.298Z,2.37
2019-06-08T09:28:18.696Z,1.07
2019-06-08T09:33:22.107Z,2.83
2019-06-08T09:38:28.494Z,3.55
2019-06-08T09:43:31.156Z,2.95
2019-06-08T09:48:34.829Z,0.85
2019-06-08T09:53:41.610Z,1.20
2019-06-08T09:58:44.290Z,1.30
2019-06-08T10:03:48.317Z,1.42
2019-06-08T10:08:52.359Z,0.68
2019-06-08T10:13:59.453Z,2.25
2019-06-08T10:19:04.926Z,1.85
2019-06-08T10:24:09.436Z,0.75
2019-06-08T10:29:12.942Z,2.15
2019-06-08T10:34:16.686Z,1.85
2019-06-08T10:39:20.441Z,1.25
2019-06-08T10:44:24.173Z,2.60
2019-06-08T10:49:28.623Z,0.60
2019-06-08T10:54:33.163Z,2.65
2019-06-08T10:59:40.019Z,1.72
2019-06-08T11:04:43.522Z,3.40
2019-06-08T11:09:48.214Z,0.85
2019-06-08T11:14:52.686Z,0.50
2019-06-08T11:19:59.405Z,0.40
2019-06-08T11:25:03.752Z,0.93
2019-06-08T11:30:17.392Z,1.15
2019-06-08T11:35:13.787Z,0.90
2019-06-08T11:40:20.669Z,0.80
2019-06-08T11:45:23.177Z,1.35
2019-06-08T11:50:35.667Z,1.00
2019-06-08T11:55:39.437Z,3.45
2019-06-08T12:01:13.731Z,1.10
2019-06-08T12:06:18.485Z,0.85
2019-06-08T12:11:23.200Z,1.37
2019-06-08T12:16:28.294Z,2.37
2019-06-08T12:21:32.083Z,3.20
2019-06-08T12:26:35.771Z,3.17
2019-06-08T12:31:39.489Z,0.78
2019-06-08T12:36:43.198Z,1.40
2019-06-08T12:41:47.876Z,0.72
2019-06-08T12:46:51.719Z,0.82
2019-06-08T12:51:57.922Z,1.32
2019-06-08T12:57:00.937Z,2.08
2019-06-08T13:02:04.975Z,1.30
2019-06-08T13:07:10.503Z,0.72
2019-06-08T13:12:15.102Z,0.95
2019-06-08T13:17:19.893Z,1.80
2019-06-08T13:22:28.289Z,2.15
2019-06-08T13:27:30.036Z,1.27
2019-06-08T13:32:33.714Z,1.10
2019-06-08T13:37:39.027Z,0.88
2019-06-08T13:42:42.997Z,1.50
2019-06-08T13:47:50.268Z,1.45
2019-06-08T13:52:52.129Z,0.82
2019-06-08T13:57:57.997Z,3.52
2019-06-08T14:03:01.391Z,1.75
2019-06-08T14:08:05.339Z,1.22
2019-06-08T14:13:09.708Z,1.90
2019-06-08T14:18:13.396Z,1.72
2019-06-08T14:23:19.660Z,4.00
2019-06-08T14:28:24.252Z,1.32
2019-06-08T14:33:33.032Z,0.95
2019-06-08T14:38:38.525Z,2.22
2019-06-08T14:43:41.210Z,2.17
2019-06-08T14:48:45.562Z,2.15
2019-06-08T14:53:49.709Z,1.77
2019-06-08T14:58:53.413Z,1.50
2019-06-08T15:03:58.567Z,1.35
2019-06-08T15:09:02.386Z,4.70
2019-06-08T15:14:08.514Z,1.55
2019-06-08T15:19:12.571Z,1.98
2019-06-08T15:24:18.390Z,3.58
2019-06-08T15:29:22.852Z,2.20
2019-06-08T15:34:29.580Z,1.95
2019-06-08T15:39:33.941Z,1.98
2019-06-08T15:44:38.303Z,1.45
2019-06-08T15:49:42.215Z,2.60
2019-06-08T15:54:48.251Z,1.25
2019-06-08T15:59:51.410Z,1.72
2019-06-08T16:04:55.073Z,2.90
2019-06-08T16:09:58.755Z,1.80
2019-06-08T16:15:02.438Z,3.95
2019-06-08T16:20:06.371Z,2.45
2019-06-08T16:25:10.209Z,4.05
2019-06-08T16:30:14.047Z,4.92
2019-06-08T16:35:18.085Z,5.10
2019-06-08T16:40:21.734Z,1.57
2019-06-08T16:45:25.778Z,3.47
2019-06-08T16:50:30.607Z,2.55
2019-06-08T16:55:34.658Z,2.30
2019-06-08T17:00:40.764Z,3.08
2019-06-08T17:05:44.088Z,1.42
2019-06-08T17:10:47.774Z,3.83
2019-06-08T17:15:51.430Z,3.90
2019-06-08T17:20:55.328Z,1.62
2019-06-08T17:25:59.262Z,1.20
2019-06-08T17:31:02.990Z,3.30
2019-06-08T17:36:06.756Z,2.02
2019-06-08T17:41:10.429Z,5.28
2019-06-08T17:46:14.149Z,2.40
2019-06-08T17:51:17.810Z,2.62
2019-06-08T17:56:21.465Z,1.72
2019-06-08T18:01:25.210Z,2.80
2019-06-08T18:06:28.866Z,2.55
2019-06-08T18:11:32.550Z,1.80
2019-06-08T18:16:38.966Z,3.27
2019-06-08T18:21:43.097Z,3.15
2019-06-08T18:26:47.545Z,1.98
2019-06-08T18:31:51.353Z,2.02
2019-06-08T18:36:57.718Z,2.67
2019-06-08T18:42:00.819Z,2.75
2019-06-08T18:47:07.438Z,0.93
2019-06-08T18:52:14.150Z,5.67
2019-06-08T18:57:19.361Z,2.90
2019-06-08T19:02:25.907Z,1.90
2019-06-08T19:07:33.863Z,2.90
2019-06-08T19:12:41.119Z,4.83
2019-06-08T19:17:54.109Z,3.30
2019-06-08T19:22:54.799Z,2.75
2019-06-08T19:53:00.673Z,3.10
2019-06-08T19:58:04.631Z,7.97
2019-06-08T20:03:08.381Z,3.08
2019-06-08T20:08:12.050Z,4.95
2019-06-08T20:13:15.864Z,5.10
2019-06-08T20:18:19.568Z,5.47
2019-06-08T20:23:23.251Z,5.22
2019-06-08T20:28:28.295Z,4.47
2019-06-08T20:33:32.126Z,10.08
2019-06-08T20:38:39.753Z,6.80
2019-06-08T20:43:42.815Z,21.70
2019-06-08T20:48:48.379Z,8.43
2019-06-08T20:53:53.687Z,7.57
2019-06-08T20:58:57.908Z,5.33
2019-06-08T21:04:01.609Z,10.33
2019-06-08T21:09:07.865Z,11.40
2019-06-08T21:14:11.581Z,9.67
2019-06-08T21:19:17.459Z,12.50
2019-06-08T21:24:21.003Z,7.63
2019-06-08T21:29:26.742Z,5.93
2019-06-08T21:34:30.091Z,7.37
2019-06-08T21:39:36.045Z,6.63
2019-06-08T21:44:39.447Z,7.83
2019-06-08T21:49:43.354Z,8.30
2019-06-08T21:54:48.880Z,6.60
2019-06-08T22:00:06.975Z,8.77
2019-06-08T22:05:02.696Z,7.43
2019-06-08T22:10:04.443Z,7.60
2019-06-08T22:15:09.387Z,11.13
2019-06-08T22:20:13.128Z,7.40
2019-06-08T22:25:17.574Z,5.57
2019-06-08T22:30:35.425Z,7.30
2019-06-08T22:35:27.556Z,6.70
2019-06-08T22:40:31.587Z,5.77
2019-06-08T22:45:37.310Z,6.50
2019-06-08T22:50:40.743Z,6.53
2019-06-08T22:55:44.451Z,6.50
2019-06-08T23:00:52.657Z,6.03
2019-06-08T23:05:54.793Z,8.83
2019-06-08T23:11:00.612Z,6.00
2019-06-08T23:16:06.185Z,5.80
2019-06-08T23:21:10.223Z,7.43
2019-06-08T23:26:14.113Z,6.53
2019-06-08T23:31:24.950Z,8.67
2019-06-08T23:36:46.008Z,6.40
2019-06-08T23:41:28.623Z,4.97
2019-06-08T23:46:32.306Z,4.87
2019-06-08T23:51:37.974Z,4.40
2019-06-08T23:56:41.630Z,4.97
